Time;durP1;ratioP1;P1;durP2;ratioP2;P2;SDS_P1;SDS_P2;PMS_P1;PMS_P2;Temp;Humidity;BMP_temperature;BMP_pressure;BME280_temperature;BME280_humidity;BME280_pressure;Samples;Min_cycle;Max_cycle;Signal;HPM_P1;HPM_P2
2023/07/22 00:01:14;;;;;;;3.53;3.13;;;26.10;49.20;;;;;;5036431;28;20472;-69
2023/07/22 00:03:40;;;;;;;3.43;3.10;;;26.10;49.30;;;;;;5034177;28;20214;-69
2023/07/22 00:06:10;;;;;;;3.70;3.00;;;26.10;49.20;;;;;;5034572;28;20171;-68
2023/07/22 00:08:37;;;;;;;3.40;3.03;;;26.10;49.30;;;;;;5034123;28;20611;-68
2023/07/22 00:11:04;;;;;;;2.63;2.43;;;26.10;49.30;;;;;;5033833;28;20411;-68
2023/07/22 00:13:30;;;;;;;2.97;2.67;;;26.10;49.40;;;;;;5036303;28;20442;-68
2023/07/22 00:15:56;;;;;;;3.73;2.97;;;26.10;49.40;;;;;;5036819;28;21008;-68
2023/07/22 00:18:23;;;;;;;3.13;2.83;;;26.10;49.40;;;;;;5036163;28;20202;-68
2023/07/22 00:20:49;;;;;;;3.47;3.17;;;26.10;49.40;;;;;;5036709;28;20410;-68
2023/07/22 00:23:15;;;;;;;4.10;3.23;;;26.10;49.40;;;;;;5036452;28;20529;-68
2023/07/22 00:25:41;;;;;;;3.33;3.03;;;26.10;49.50;;;;;;5036191;28;20187;-68
2023/07/22 00:28:07;;;;;;;3.17;2.90;;;26.10;49.40;;;;;;5036697;28;20426;-68
2023/07/22 00:30:34;;;;;;;3.40;2.70;;;26.10;49.50;;;;;;5036184;28;20414;-68
2023/07/22 00:33:00;;;;;;;3.17;2.87;;;26.10;49.40;;;;;;5034957;28;20179;-68
2023/07/22 00:35:26;;;;;;;3.17;2.70;;;26.10;49.50;;;;;;5035897;28;20521;-68
2023/07/22 00:37:52;;;;;;;3.77;3.40;;;26.10;49.50;;;;;;5036537;28;20438;-68
2023/07/22 00:40:18;;;;;;;4.50;3.33;;;26.00;49.40;;;;;;5035982;28;20175;-68
2023/07/22 00:42:43;;;;;;;3.30;3.00;;;26.10;49.50;;;;;;5035803;28;20795;-68
2023/07/22 00:45:09;;;;;;;3.23;2.93;;;26.10;49.60;;;;;;5036920;28;20437;-68
2023/07/22 00:47:35;;;;;;;3.70;3.40;;;26.10;49.60;;;;;;5035870;28;20184;-68
2023/07/22 00:50:03;;;;;;;3.73;3.10;;;26.00;49.50;;;;;;5036414;28;20183;-67
2023/07/22 00:52:29;;;;;;;3.87;3.43;;;26.10;49.60;;;;;;5035811;28;20403;-68
2023/07/22 00:54:55;;;;;;;4.10;2.93;;;26.00;49.50;;;;;;5036046;28;20821;-68
2023/07/22 00:57:21;;;;;;;3.40;3.10;;;26.10;49.60;;;;;;5039478;28;20196;-68
2023/07/22 00:59:47;;;;;;;4.47;3.30;;;26.10;49.60;;;;;;5039887;28;20424;-68
2023/07/22 01:02:13;;;;;;;4.23;3.43;;;26.00;49.60;;;;;;5039947;28;20421;-69
2023/07/22 01:04:39;;;;;;;3.13;2.87;;;26.10;49.60;;;;;;5039615;28;20402;-69
2023/07/22 01:07:11;;;;;;;3.60;2.70;;;26.10;49.70;;;;;;5039252;28;20186;-68
2023/07/22 01:09:37;;;;;;;4.33;3.50;;;26.00;49.60;;;;;;5039373;28;20164;-68
2023/07/22 01:12:05;;;;;;;4.37;3.13;;;26.00;49.60;;;;;;5039061;28;20613;-69
2023/07/22 01:14:35;;;;;;;3.37;3.07;;;26.00;50.20;;;;;;5040101;28;20781;-68
2023/07/22 01:17:05;;;;;;;3.03;2.83;;;26.00;49.70;;;;;;5039188;28;20449;-68
2023/07/22 01:19:32;;;;;;;4.40;3.60;;;26.00;49.80;;;;;;5039355;28;20426;-68
2023/07/22 01:22:00;;;;;;;4.83;3.40;;;26.00;49.80;;;;;;5038403;28;20415;-69
2023/07/22 01:24:26;;;;;;;3.07;2.77;;;26.00;49.80;;;;;;5038442;28;20464;-69
2023/07/22 01:26:52;;;;;;;4.67;3.30;;;26.00;49.80;;;;;;5038743;28;20410;-68
2023/07/22 01:29:17;;;;;;;3.20;2.90;;;26.00;49.80;;;;;;5038366;28;20950;-68
2023/07/22 01:31:49;;;;;;;6.10;3.00;;;26.00;49.80;;;;;;5039470;28;20186;-69
2023/07/22 01:34:15;;;;;;;3.00;2.80;;;26.00;49.70;;;;;;5038711;28;20235;-68
2023/07/22 01:36:40;;;;;;;3.27;2.97;;;26.00;49.80;;;;;;5037648;28;20458;-68
2023/07/22 01:39:06;;;;;;;5.33;3.13;;;26.00;49.80;;;;;;5038543;28;20192;-68
2023/07/22 01:41:32;;;;;;;4.50;3.33;;;26.00;49.80;;;;;;5038587;28;20246;-68
2023/07/22 01:43:57;;;;;;;4.10;3.80;;;26.00;49.90;;;;;;5038176;28;20182;-68
2023/07/22 01:46:23;;;;;;;3.43;3.13;;;26.00;49.80;;;;;;5037970;28;20183;-68
2023/07/22 01:48:49;;;;;;;3.97;3.50;;;26.00;49.90;;;;;;5038157;28;20258;-68
2023/07/22 01:51:14;;;;;;;3.43;3.13;;;25.90;49.90;;;;;;5038323;28;20182;-68
2023/07/22 01:53:40;;;;;;;3.80;3.07;;;25.90;49.80;;;;;;5038040;28;20649;-69
2023/07/22 01:56:05;;;;;;;4.07;3.30;;;26.00;49.90;;;;;;5037677;28;20195;-68
2023/07/22 01:58:32;;;;;;;3.90;3.60;;;25.90;49.90;;;;;;5038376;28;20195;-69
2023/07/22 02:00:57;;;;;;;4.07;3.67;;;25.90;49.90;;;;;;5038143;28;20688;-68
2023/07/22 02:03:23;;;;;;;4.73;3.13;;;26.00;50.00;;;;;;5037748;28;20407;-68
2023/07/22 02:05:48;;;;;;;3.23;2.90;;;25.90;49.90;;;;;;5037632;28;20184;-68
2023/07/22 02:08:14;;;;;;;4.10;3.30;;;25.90;49.90;;;;;;5037323;28;20191;-68
2023/07/22 02:10:39;;;;;;;3.57;3.27;;;25.90;50.00;;;;;;5038092;28;20271;-68
2023/07/22 02:13:05;;;;;;;3.80;3.50;;;25.90;50.00;;;;;;5038011;28;20676;-68
2023/07/22 02:15:32;;;;;;;3.80;3.17;;;25.90;50.00;;;;;;5037738;28;20257;-68
2023/07/22 02:17:57;;;;;;;4.87;3.40;;;25.90;49.90;;;;;;5037963;28;20223;-68
2023/07/22 02:20:23;;;;;;;3.70;3.30;;;25.90;50.00;;;;;;5037625;28;20425;-68
2023/07/22 02:22:49;;;;;;;8.50;3.37;;;25.90;50.10;;;;;;5037165;28;20541;-67
2023/07/22 02:25:15;;;;;;;4.07;3.60;;;25.90;50.00;;;;;;5037822;28;20430;-68
2023/07/22 02:27:41;;;;;;;3.97;3.60;;;25.90;50.00;;;;;;5037716;28;20664;-68
2023/07/22 02:30:11;;;;;;;4.03;3.20;;;25.90;50.00;;;;;;5037854;28;20555;-68
2023/07/22 02:32:40;;;;;;;3.20;2.90;;;25.90;50.10;;;;;;5036300;28;20422;-68
2023/07/22 02:35:07;;;;;;;5.13;3.33;;;25.90;50.10;;;;;;5037320;28;20499;-68
2023/07/22 02:37:34;;;;;;;4.70;3.33;;;25.90;50.20;;;;;;5037245;28;20426;-69
2023/07/22 02:39:59;;;;;;;3.93;3.53;;;25.90;50.10;;;;;;5037209;28;20406;-68
2023/07/22 02:42:25;;;;;;;4.87;3.67;;;25.90;50.20;;;;;;5038252;28;20398;-68
2023/07/22 02:44:51;;;;;;;3.53;3.23;;;25.90;50.10;;;;;;5037727;28;20172;-68
2023/07/22 02:47:18;;;;;;;4.07;3.10;;;25.90;50.10;;;;;;5003390;28;20664;-68
2023/07/22 02:49:44;;;;;;;3.33;2.60;;;25.90;50.20;;;;;;5037388;28;20473;-68
2023/07/22 02:52:10;;;;;;;3.60;3.30;;;25.90;50.20;;;;;;5038261;28;20803;-68
2023/07/22 02:54:40;;;;;;;3.60;3.30;;;25.90;50.20;;;;;;5038733;28;20485;-68
2023/07/22 02:57:05;;;;;;;3.23;2.93;;;25.90;50.20;;;;;;5038615;28;20552;-68
2023/07/22 02:59:32;;;;;;;4.10;3.00;;;25.90;50.70;;;;;;5038288;28;20442;-69
2023/07/22 03:01:58;;;;;;;3.17;2.87;;;25.90;50.20;;;;;;5038769;28;20310;-68
2023/07/22 03:04:24;;;;;;;3.13;2.83;;;25.90;50.20;;;;;;5038372;28;21145;-68
2023/07/22 03:06:49;;;;;;;2.70;2.43;;;25.90;50.20;;;;;;5036832;28;20790;-68
2023/07/22 03:09:15;;;;;;;3.20;2.90;;;25.90;50.10;;;;;;5038580;28;20203;-69
2023/07/22 03:11:40;;;;;;;3.17;2.70;;;25.80;50.10;;;;;;5038449;28;20190;-69
2023/07/22 03:14:06;;;;;;;2.60;2.40;;;25.90;50.20;;;;;;5039091;28;20175;-69
2023/07/22 03:16:32;;;;;;;3.70;3.40;;;25.90;50.10;;;;;;5038232;28;20199;-68
2023/07/22 03:18:57;;;;;;;3.20;2.90;;;25.80;50.10;;;;;;5037198;28;20226;-68
2023/07/22 03:21:23;;;;;;;4.03;3.27;;;25.80;50.20;;;;;;5039242;28;20198;-69
2023/07/22 03:23:49;;;;;;;3.90;3.10;;;25.80;50.10;;;;;;5038207;28;20180;-68
2023/07/22 03:26:15;;;;;;;5.97;3.00;;;25.80;50.10;;;;;;5037182;28;20186;-69
2023/07/22 03:28:41;;;;;;;3.03;2.73;;;25.80;50.10;;;;;;5038127;28;20203;-68
2023/07/22 03:31:08;;;;;;;5.20;3.17;;;25.80;50.10;;;;;;5038332;28;20780;-69
2023/07/22 03:33:34;;;;;;;3.77;3.03;;;25.80;50.20;;;;;;5038349;28;20442;-68
2023/07/22 03:36:00;;;;;;;3.00;2.80;;;25.80;50.10;;;;;;5038534;28;20489;-68
2023/07/22 03:38:26;;;;;;;3.80;3.40;;;25.80;50.10;;;;;;5038521;28;20434;-68
2023/07/22 03:40:54;;;;;;;3.33;2.73;;;25.80;50.20;;;;;;5038054;28;20177;-68
2023/07/22 03:43:20;;;;;;;3.30;2.97;;;25.80;50.20;;;;;;5038267;28;20180;-68
2023/07/22 03:45:45;;;;;;;2.60;2.33;;;25.80;50.20;;;;;;5037148;28;20421;-69
2023/07/22 03:48:11;;;;;;;4.33;3.23;;;25.80;50.20;;;;;;5037719;28;20282;-68
2023/07/22 03:50:36;;;;;;;4.70;3.03;;;25.80;50.20;;;;;;5038146;28;20210;-69
2023/07/22 03:53:02;;;;;;;2.97;2.67;;;25.80;50.20;;;;;;5038404;28;20190;-68
2023/07/22 03:55:28;;;;;;;3.30;3.00;;;25.80;50.20;;;;;;5037430;28;20186;-68
2023/07/22 03:57:53;;;;;;;3.67;2.90;;;25.80;50.80;;;;;;5038041;28;20196;-68
2023/07/22 04:00:21;;;;;;;5.90;3.03;;;25.80;50.20;;;;;;5037942;28;20176;-68
2023/07/22 04:02:46;;;;;;;3.30;2.80;;;25.80;50.20;;;;;;5038285;28;20171;-69
2023/07/22 04:05:12;;;;;;;2.83;2.60;;;25.80;50.20;;;;;;5037805;28;20437;-68
2023/07/22 04:07:38;;;;;;;3.67;3.23;;;25.80;50.30;;;;;;5037617;28;20191;-68
2023/07/22 04:10:05;;;;;;;3.83;3.40;;;25.80;50.30;;;;;;5037782;28;20175;-68
2023/07/22 04:12:30;;;;;;;3.40;2.87;;;25.80;50.20;;;;;;5038081;28;20414;-68
2023/07/22 04:14:56;;;;;;;3.17;2.87;;;25.80;50.20;;;;;;5036137;28;20525;-68
2023/07/22 04:17:21;;;;;;;3.60;3.30;;;25.80;50.30;;;;;;5037085;28;20211;-69
2023/07/22 04:19:47;;;;;;;3.37;3.07;;;25.80;50.20;;;;;;5037284;28;20712;-69
2023/07/22 04:22:13;;;;;;;3.87;3.47;;;25.80;50.30;;;;;;5035852;28;20179;-68
2023/07/22 04:24:38;;;;;;;4.23;3.33;;;25.80;50.30;;;;;;5035585;28;20601;-68
2023/07/22 04:27:04;;;;;;;3.30;2.70;;;25.70;50.30;;;;;;5037832;28;20664;-68
2023/07/22 04:29:31;;;;;;;3.10;2.80;;;25.70;50.20;;;;;;5035431;28;20290;-68
2023/07/22 04:32:00;;;;;;;3.20;2.83;;;25.70;50.20;;;;;;5040668;28;20164;-68
2023/07/22 04:34:32;;;;;;;3.40;3.10;;;25.70;50.20;;;;;;5041359;28;20503;-68
2023/07/22 04:36:58;;;;;;;3.43;3.13;;;25.70;50.20;;;;;;5041474;28;20457;-68
2023/07/22 04:39:24;;;;;;;4.40;3.10;;;25.70;50.20;;;;;;5041832;28;20518;-68
2023/07/22 04:41:49;;;;;;;3.27;2.70;;;25.70;50.30;;;;;;5041087;28;20263;-68
2023/07/22 04:44:15;;;;;;;3.03;2.83;;;25.70;50.20;;;;;;5040956;28;20442;-68
2023/07/22 04:46:40;;;;;;;3.00;2.80;;;25.70;50.20;;;;;;5040953;28;20239;-68
2023/07/22 04:49:06;;;;;;;3.20;2.90;;;25.70;50.30;;;;;;5040850;28;20707;-68
2023/07/22 04:51:32;;;;;;;5.20;2.57;;;25.70;50.30;;;;;;5039626;28;20202;-69
2023/07/22 04:53:57;;;;;;;2.77;2.57;;;25.70;50.30;;;;;;5041000;28;20187;-69
2023/07/22 04:56:23;;;;;;;3.63;3.20;;;25.70;50.30;;;;;;5040724;28;20200;-68
2023/07/22 04:58:49;;;;;;;2.97;2.77;;;25.80;50.40;;;;;;5040733;28;20205;-68
2023/07/22 05:01:15;;;;;;;2.90;2.70;;;25.80;50.40;;;;;;5040794;28;20164;-69
2023/07/22 05:03:40;;;;;;;3.60;3.13;;;25.70;50.30;;;;;;5040381;28;20168;-69
2023/07/22 05:06:06;;;;;;;3.53;2.83;;;25.70;50.30;;;;;;5039562;28;20880;-69
2023/07/22 05:08:32;;;;;;;3.40;3.10;;;25.80;50.40;;;;;;5040103;28;20195;-69
2023/07/22 05:10:57;;;;;;;4.13;2.87;;;25.80;50.40;;;;;;5040202;28;20184;-69
2023/07/22 05:13:23;;;;;;;3.17;2.70;;;25.80;50.30;;;;;;5040305;28;20258;-69
2023/07/22 05:15:49;;;;;;;3.63;3.33;;;25.80;50.30;;;;;;5040088;28;20684;-69
2023/07/22 05:18:14;;;;;;;3.47;2.80;;;25.80;50.40;;;;;;5040395;28;20201;-68
2023/07/22 05:20:40;;;;;;;3.33;3.00;;;25.80;50.30;;;;;;5039954;28;20172;-69
2023/07/22 05:23:05;;;;;;;4.43;2.70;;;25.80;50.40;;;;;;5039315;28;20175;-69
2023/07/22 05:25:31;;;;;;;4.37;2.87;;;25.80;50.30;;;;;;5039660;28;20175;-68
2023/07/22 05:27:56;;;;;;;2.67;2.47;;;25.80;50.30;;;;;;5039452;28;20275;-69
2023/07/22 05:30:22;;;;;;;6.07;3.53;;;25.80;50.20;;;;;;5038523;28;20594;-69
2023/07/22 05:32:51;;;;;;;2.90;2.70;;;25.80;50.20;;;;;;5038198;28;20171;-69
2023/07/22 05:35:16;;;;;;;2.90;2.47;;;25.80;50.20;;;;;;5037976;28;20176;-69
2023/07/22 05:37:42;;;;;;;2.80;2.50;;;25.80;50.20;;;;;;5038924;28;21186;-68
2023/07/22 05:40:09;;;;;;;3.30;3.00;;;25.80;50.20;;;;;;5038871;28;20179;-69
2023/07/22 05:42:34;;;;;;;2.90;2.50;;;25.80;50.10;;;;;;5037288;28;20171;-69
2023/07/22 05:45:02;;;;;;;3.40;3.10;;;25.80;50.20;;;;;;5039050;28;20411;-69
2023/07/22 05:47:27;;;;;;;5.67;3.33;;;25.80;50.10;;;;;;5038704;28;20199;-69
2023/07/22 05:49:53;;;;;;;6.20;3.33;;;25.80;50.10;;;;;;5038898;28;20788;-69
2023/07/22 05:52:19;;;;;;;5.17;2.83;;;25.80;50.10;;;;;;5038914;28;20255;-69
2023/07/22 05:54:44;;;;;;;4.67;3.17;;;25.80;50.10;;;;;;5038538;28;20180;-68
2023/07/22 05:57:10;;;;;;;4.03;3.03;;;25.80;50.10;;;;;;5038287;28;20212;-68
2023/07/22 05:59:40;;;;;;;4.20;3.37;;;25.80;50.10;;;;;;5038638;28;20247;-69
2023/07/22 06:02:06;;;;;;;7.30;3.50;;;25.80;50.00;;;;;;5037146;28;20644;-70
2023/07/22 06:04:32;;;;;;;4.30;3.33;;;25.80;50.00;;;;;;5038388;28;20509;-69
2023/07/22 06:06:57;;;;;;;5.30;3.17;;;25.80;50.00;;;;;;5038545;28;20452;-69
2023/07/22 06:09:23;;;;;;;3.37;2.77;;;25.80;50.00;;;;;;5038631;28;20203;-69
2023/07/22 06:11:49;;;;;;;4.47;3.00;;;25.80;49.90;;;;;;5038497;28;20179;-70
2023/07/22 06:14:14;;;;;;;3.83;3.17;;;25.80;49.90;;;;;;5038403;28;20175;-68
2023/07/22 06:16:40;;;;;;;5.93;3.00;;;25.80;49.90;;;;;;5037913;28;20684;-70
2023/07/22 06:19:05;;;;;;;2.50;2.30;;;25.80;49.80;;;;;;5038580;28;20179;-69
2023/07/22 06:21:31;;;;;;;3.97;3.07;;;25.80;49.80;;;;;;5038627;28;20195;-68
2023/07/22 06:23:56;;;;;;;3.63;2.97;;;25.80;49.80;;;;;;5037079;28;20172;-69
2023/07/22 06:26:22;;;;;;;3.13;2.80;;;25.80;49.80;;;;;;5037965;28;20696;-68
2023/07/22 06:28:48;;;;;;;4.43;3.00;;;25.80;49.70;;;;;;5036352;28;20226;-69
2023/07/22 06:31:13;;;;;;;4.03;3.47;;;25.70;49.70;;;;;;5037951;28;20637;-69
2023/07/22 06:33:39;;;;;;;5.27;2.90;;;25.80;49.70;;;;;;5038611;28;20171;-69
2023/07/22 06:36:05;;;;;;;3.50;3.10;;;25.70;50.20;;;;;;5038399;28;20200;-68
2023/07/22 06:38:30;;;;;;;3.70;3.10;;;25.70;49.60;;;;;;5038368;28;20199;-69
2023/07/22 06:40:57;;;;;;;4.03;3.00;;;25.70;49.60;;;;;;5038597;28;20438;-69
2023/07/22 06:43:23;;;;;;;4.13;3.00;;;25.70;49.60;;;;;;5038646;28;20243;-69
2023/07/22 06:45:48;;;;;;;4.53;3.07;;;25.70;49.50;;;;;;5038225;28;20450;-68
2023/07/22 06:48:14;;;;;;;4.20;3.70;;;25.80;49.60;;;;;;5037977;28;20265;-69
2023/07/22 06:50:39;;;;;;;4.90;3.03;;;25.70;49.50;;;;;;5037852;28;20186;-69
2023/07/22 06:53:05;;;;;;;3.63;2.93;;;25.70;49.60;;;;;;5037485;28;20211;-70
2023/07/22 06:55:30;;;;;;;3.80;2.93;;;25.70;49.50;;;;;;5037701;28;20180;-68
2023/07/22 06:57:57;;;;;;;3.70;3.40;;;25.70;49.50;;;;;;5038308;28;20184;-69
2023/07/22 07:00:23;;;;;;;4.07;3.67;;;25.70;49.50;;;;;;5037848;28;20225;-68
2023/07/22 07:02:50;;;;;;;5.80;3.40;;;25.70;49.60;;;;;;5037444;28;20418;-70
2023/07/22 07:05:16;;;;;;;4.00;3.00;;;25.70;49.50;;;;;;5036885;28;20179;-68
2023/07/22 07:07:42;;;;;;;3.30;2.73;;;25.70;49.60;;;;;;5038508;28;20426;-69
2023/07/22 07:10:08;;;;;;;3.07;2.83;;;25.70;49.60;;;;;;5037669;28;20414;-69
2023/07/22 07:12:33;;;;;;;4.00;3.60;;;25.70;49.60;;;;;;5037603;28;20175;-68
2023/07/22 07:15:00;;;;;;;5.23;3.53;;;25.70;49.50;;;;;;5037695;28;20637;-69
2023/07/22 07:17:26;;;;;;;3.57;3.27;;;25.70;49.50;;;;;;5038048;28;20218;-69
2023/07/22 07:19:51;;;;;;;5.17;3.87;;;25.70;49.60;;;;;;5037145;28;20410;-68
2023/07/22 07:22:17;;;;;;;5.53;3.00;;;25.70;49.60;;;;;;5038051;28;20164;-69
2023/07/22 07:24:42;;;;;;;3.63;3.33;;;25.70;49.60;;;;;;5037336;28;20273;-68
2023/07/22 07:27:08;;;;;;;6.63;3.17;;;25.70;49.50;;;;;;5043034;28;20174;-69
2023/07/22 07:29:33;;;;;;;3.57;3.27;;;25.70;49.50;;;;;;5057823;28;20221;-68
2023/07/22 07:31:59;;;;;;;3.33;3.00;;;25.70;49.50;;;;;;5057426;28;20177;-68
2023/07/22 07:34:25;;;;;;;3.07;2.40;;;25.70;50.10;;;;;;5056083;28;20298;-67
2023/07/22 07:36:50;;;;;;;3.17;2.87;;;25.70;49.50;;;;;;5057984;28;20206;-68
2023/07/22 07:39:16;;;;;;;3.50;2.97;;;25.70;49.50;;;;;;5057550;28;20198;-68
2023/07/22 07:41:41;;;;;;;2.70;2.40;;;25.70;49.50;;;;;;5057053;28;20692;-68
2023/07/22 07:44:07;;;;;;;3.60;3.30;;;25.70;49.50;;;;;;5056018;28;20175;-68
2023/07/22 07:46:33;;;;;;;3.10;2.80;;;25.70;49.50;;;;;;5057316;28;20178;-68
2023/07/22 07:49:03;;;;;;;4.30;2.53;;;25.70;49.50;;;;;;5057448;28;20214;-68
2023/07/22 07:51:30;;;;;;;3.13;2.83;;;25.70;49.50;;;;;;5057476;28;20197;-68
2023/07/22 07:53:58;;;;;;;3.50;2.80;;;25.70;49.60;;;;;;5057160;28;20416;-68
2023/07/22 07:56:24;;;;;;;3.07;2.77;;;25.70;49.50;;;;;;5057056;28;20461;-68
2023/07/22 07:58:52;;;;;;;3.27;2.70;;;25.70;49.50;;;;;;5056152;28;20483;-68
2023/07/22 08:01:18;;;;;;;3.03;2.63;;;25.70;49.50;;;;;;5056708;28;20406;-69
2023/07/22 08:03:44;;;;;;;4.53;3.20;;;25.70;49.60;;;;;;5056340;28;20414;-69
2023/07/22 08:06:10;;;;;;;3.83;2.83;;;25.70;49.60;;;;;;5045455;28;20198;-69
2023/07/22 08:08:37;;;;;;;3.27;2.97;;;25.70;49.60;;;;;;5043582;28;20953;-69
2023/07/22 08:11:07;;;;;;;3.43;2.90;;;25.70;49.60;;;;;;5047100;28;20425;-69
2023/07/22 08:13:33;;;;;;;4.17;3.17;;;25.70;49.60;;;;;;5046094;28;20413;-69
2023/07/22 08:16:09;;;;;;;4.70;3.33;;;25.70;49.60;;;;;;5047418;28;20456;-69
2023/07/22 08:18:35;;;;;;;6.33;3.63;;;25.70;49.60;;;;;;5045618;28;20436;-68
2023/07/22 08:21:03;;;;;;;3.37;2.77;;;25.80;49.70;;;;;;5044531;28;20844;-69
2023/07/22 08:23:29;;;;;;;3.80;3.30;;;25.70;49.50;;;;;;5045506;28;20413;-68
2023/07/22 08:25:55;;;;;;;3.27;2.97;;;25.80;49.70;;;;;;5045033;28;20426;-70
2023/07/22 08:28:20;;;;;;;5.30;3.57;;;25.70;49.60;;;;;;5044811;28;20441;-68
2023/07/22 08:30:48;;;;;;;3.57;3.10;;;25.80;50.20;;;;;;5046375;28;20278;-67
2023/07/22 08:33:14;;;;;;;4.20;2.93;;;25.80;49.60;;;;;;5046039;28;20188;-68
2023/07/22 08:35:40;;;;;;;3.70;3.30;;;25.70;49.60;;;;;;5044687;28;20859;-66
2023/07/22 08:38:07;;;;;;;3.13;2.80;;;25.70;49.50;;;;;;5046653;28;20575;-67
2023/07/22 08:40:37;;;;;;;4.63;3.00;;;25.80;49.70;;;;;;5044414;28;20172;-68
2023/07/22 08:43:07;;;;;;;3.10;2.80;;;25.70;49.50;;;;;;5044696;28;20754;-68
2023/07/22 08:45:36;;;;;;;3.33;2.90;;;25.80;49.70;;;;;;5044948;28;20414;-67
2023/07/22 08:48:12;;;;;;;4.00;3.37;;;25.70;49.60;;;;;;5040955;28;20558;-68
2023/07/22 08:50:46;;;;;;;3.07;2.87;;;25.70;49.60;;;;;;5035939;28;20406;-67
2023/07/22 08:53:15;;;;;;;3.83;2.90;;;25.70;49.60;;;;;;5036088;28;20398;-68
2023/07/22 08:55:42;;;;;;;2.93;2.63;;;25.80;49.70;;;;;;5036369;28;20923;-67
2023/07/22 08:58:09;;;;;;;2.80;2.60;;;25.80;49.70;;;;;;5036115;28;20432;-68
2023/07/22 09:00:35;;;;;;;3.80;3.03;;;25.70;49.60;;;;;;5036079;28;20482;-69
2023/07/22 09:03:01;;;;;;;2.80;2.40;;;25.70;49.60;;;;;;5035603;28;21233;-68
2023/07/22 09:05:27;;;;;;;2.97;2.60;;;25.80;49.60;;;;;;5035761;28;20414;-70
2023/07/22 09:07:53;;;;;;;3.30;3.00;;;25.80;49.60;;;;;;5035698;28;20196;-69
2023/07/22 09:10:20;;;;;;;2.80;2.60;;;25.80;49.70;;;;;;5036532;28;20446;-69
2023/07/22 09:12:46;;;;;;;3.00;2.70;;;25.80;49.60;;;;;;5036794;28;20415;-69
2023/07/22 09:15:13;;;;;;;3.10;2.80;;;25.70;49.60;;;;;;5035647;28;20919;-69
2023/07/22 09:17:40;;;;;;;3.03;2.70;;;25.80;49.70;;;;;;5038434;28;20511;-69
2023/07/22 09:20:07;;;;;;;3.00;2.70;;;25.80;49.60;;;;;;5040005;28;20438;-68
2023/07/22 09:22:33;;;;;;;2.87;2.67;;;25.80;49.60;;;;;;5040673;28;20410;-68
2023/07/22 09:25:19;;;;;;;3.63;3.30;;;25.70;49.60;;;;;;5039005;28;20414;-68
2023/07/22 09:27:50;;;;;;;3.10;2.80;;;25.80;49.60;;;;;;5039383;28;20819;-69
2023/07/22 09:30:34;;;;;;;4.10;2.83;;;25.70;49.50;;;;;;5038332;28;20414;-68
2023/07/22 09:33:01;;;;;;;3.00;2.70;;;25.70;49.50;;;;;;5039684;28;20513;-68
2023/07/22 09:35:40;;;;;;;3.10;2.80;;;25.80;49.60;;;;;;5038798;28;20780;-68
2023/07/22 09:38:06;;;;;;;4.03;3.10;;;25.80;49.50;;;;;;5038447;28;20452;-68
2023/07/22 09:40:31;;;;;;;3.00;2.70;;;25.80;49.60;;;;;;5038644;28;20414;-68
2023/07/22 09:43:04;;;;;;;3.50;2.90;;;25.80;49.60;;;;;;5038989;28;20172;-68
2023/07/22 09:45:31;;;;;;;3.17;2.87;;;25.80;49.50;;;;;;5038367;28;20192;-69
2023/07/22 09:47:58;;;;;;;3.47;3.17;;;25.70;49.40;;;;;;5038646;28;20434;-68
2023/07/22 09:50:27;;;;;;;3.60;3.13;;;25.80;49.50;;;;;;5039159;28;20415;-68
2023/07/22 09:52:57;;;;;;;2.97;2.77;;;25.80;49.50;;;;;;5039182;28;20499;-67
2023/07/22 09:55:28;;;;;;;3.50;3.20;;;25.80;49.40;;;;;;5050782;28;20417;-68
2023/07/22 09:57:54;;;;;;;4.20;3.47;;;25.80;49.40;;;;;;5057892;28;20444;-68
2023/07/22 10:00:20;;;;;;;3.50;3.20;;;25.80;49.40;;;;;;5051295;28;20450;-68
2023/07/22 10:02:51;;;;;;;3.83;3.40;;;25.80;49.40;;;;;;5058569;28;20409;-68
2023/07/22 10:05:19;;;;;;;5.10;3.03;;;25.80;49.40;;;;;;5060122;28;20410;-68
2023/07/22 10:07:55;;;;;;;3.80;3.20;;;25.80;49.40;;;;;;5053925;28;20450;-68
2023/07/22 10:10:25;;;;;;;3.33;3.03;;;25.80;49.30;;;;;;5058305;28;20459;-68
2023/07/22 10:12:53;;;;;;;3.27;2.97;;;25.80;49.20;;;;;;5058157;28;20421;-68
2023/07/22 10:15:19;;;;;;;4.27;3.70;;;25.70;49.10;;;;;;5049058;28;20484;-68
2023/07/22 10:17:45;;;;;;;3.10;2.80;;;25.80;49.10;;;;;;5056479;28;20464;-67
2023/07/22 10:20:15;;;;;;;5.43;2.90;;;25.80;49.10;;;;;;5056592;28;20506;-68
2023/07/22 10:22:45;;;;;;;5.30;3.27;;;25.80;49.00;;;;;;5056331;28;20406;-68
2023/07/22 10:25:12;;;;;;;4.40;3.30;;;25.70;49.00;;;;;;5056503;28;20943;-68
2023/07/22 10:27:40;;;;;;;3.80;3.27;;;25.80;49.00;;;;;;5055581;28;20442;-68
2023/07/22 10:30:08;;;;;;;4.70;3.00;;;25.80;49.00;;;;;;5055918;28;20945;-68
2023/07/22 10:32:39;;;;;;;3.50;3.20;;;25.70;49.00;;;;;;5055033;28;20410;-69
2023/07/22 10:35:09;;;;;;;3.37;2.80;;;25.70;49.00;;;;;;5055985;28;20405;-68
2023/07/22 10:37:35;;;;;;;3.37;3.07;;;25.80;49.00;;;;;;5056125;28;20469;-68
2023/07/22 10:40:20;;;;;;;3.63;2.73;;;25.70;49.00;;;;;;5056135;28;20779;-68
2023/07/22 10:43:12;;;;;;;3.27;2.73;;;25.70;48.90;;;;;;5055967;28;20405;-68
2023/07/22 10:45:51;;;;;;;5.13;3.57;;;25.80;49.00;;;;;;5054720;28;20444;-68
2023/07/22 10:48:17;;;;;;;4.30;3.40;;;25.80;49.00;;;;;;5055804;28;20433;-67
2023/07/22 10:50:51;;;;;;;4.30;3.50;;;25.80;49.00;;;;;;5055806;28;20509;-67
2023/07/22 10:53:21;;;;;;;5.07;4.13;;;25.80;49.60;;;;;;5055858;28;20410;-67
2023/07/22 10:56:06;;;;;;;4.10;3.30;;;25.80;49.10;;;;;;5056143;28;20453;-68
2023/07/22 10:58:44;;;;;;;6.00;3.37;;;25.80;49.10;;;;;;5055819;28;20571;-67
2023/07/22 11:01:37;;;;;;;4.23;3.60;;;25.80;49.10;;;;;;5055818;28;20401;-69
2023/07/22 11:04:12;;;;;;;3.40;3.07;;;25.80;49.10;;;;;;5054720;28;20907;-67
2023/07/22 11:06:48;;;;;;;5.70;3.40;;;25.80;49.10;;;;;;5055887;28;20500;-68
2023/07/22 11:09:34;;;;;;;3.27;2.97;;;25.80;49.10;;;;;;5055651;28;20437;-69
2023/07/22 11:12:00;;;;;;;4.90;3.17;;;25.80;49.00;;;;;;5056375;28;20393;-67
2023/07/22 11:14:28;;;;;;;3.10;2.80;;;25.70;49.00;;;;;;5055664;28;20421;-67
2023/07/22 11:16:56;;;;;;;4.40;2.77;;;25.80;49.00;;;;;;5055538;28;20222;-69
2023/07/22 11:19:23;;;;;;;3.60;2.90;;;25.80;49.10;;;;;;5055317;28;20425;-68
2023/07/22 11:21:50;;;;;;;6.13;3.87;;;25.80;49.70;;;;;;5055369;28;20452;-68
2023/07/22 11:24:16;;;;;;;4.60;3.03;;;25.80;49.10;;;;;;5047706;28;20433;-68
2023/07/22 11:26:42;;;;;;;6.60;3.10;;;25.80;49.10;;;;;;5054188;28;20417;-68
2023/07/22 11:29:09;;;;;;;4.57;3.17;;;25.80;49.10;;;;;;5052917;28;20433;-68
2023/07/22 11:31:37;;;;;;;4.20;3.80;;;25.80;49.10;;;;;;5055671;28;20413;-68
2023/07/22 11:34:04;;;;;;;3.20;2.90;;;25.80;49.00;;;;;;5055106;28;20849;-67
2023/07/22 11:36:30;;;;;;;4.00;2.93;;;25.80;49.00;;;;;;5055990;28;20492;-68
2023/07/22 11:39:26;;;;;;;3.40;2.93;;;25.80;48.90;;;;;;5055339;28;20425;-68
2023/07/22 11:41:53;;;;;;;5.97;3.43;;;25.80;48.80;;;;;;5053209;28;20422;-71
2023/07/22 11:44:21;;;;;;;4.33;3.57;;;25.80;48.90;;;;;;5053737;28;20496;-68
2023/07/22 11:46:54;;;;;;;5.67;3.60;;;25.80;48.80;;;;;;5054284;28;20471;-68
2023/07/22 11:49:26;;;;;;;4.07;2.90;;;25.80;48.80;;;;;;5053531;28;20833;-68
2023/07/22 11:51:55;;;;;;;3.77;3.37;;;25.80;48.80;;;;;;5053755;28;20534;-68
2023/07/22 11:54:21;;;;;;;4.90;3.70;;;25.80;48.70;;;;;;5053682;28;20418;-68
2023/07/22 11:56:47;;;;;;;3.30;3.00;;;25.80;48.50;;;;;;5053182;28;20457;-68
2023/07/22 11:59:12;;;;;;;3.50;3.20;;;25.80;48.40;;;;;;5053378;28;20436;-69
2023/07/22 12:01:38;;;;;;;3.97;2.80;;;25.80;48.30;;;;;;5053314;28;20190;-68
2023/07/22 12:04:13;;;;;;;4.10;3.10;;;25.80;48.30;;;;;;5053876;28;20175;-68
2023/07/22 12:06:40;;;;;;;5.73;3.13;;;25.80;48.30;;;;;;5054113;28;20269;-68
2023/07/22 12:09:08;;;;;;;7.10;3.60;;;25.80;48.40;;;;;;5055169;28;20422;-69
2023/07/22 12:11:34;;;;;;;4.70;2.77;;;25.80;48.50;;;;;;5053829;28;20412;-68
2023/07/22 12:14:17;;;;;;;6.17;2.87;;;25.80;48.30;;;;;;5054260;28;20855;-68
2023/07/22 12:16:43;;;;;;;5.93;3.70;;;25.80;48.30;;;;;;5053068;28;20238;-69
2023/07/22 12:19:09;;;;;;;3.33;2.97;;;25.80;48.20;;;;;;5054137;28;20434;-68
2023/07/22 12:21:35;;;;;;;4.33;3.23;;;25.80;48.20;;;;;;5054199;28;20175;-69
2023/07/22 12:24:01;;;;;;;5.03;3.20;;;25.80;48.20;;;;;;5054504;28;20467;-68
2023/07/22 12:26:27;;;;;;;3.70;2.87;;;25.80;48.20;;;;;;5055159;28;20428;-68
2023/07/22 12:28:53;;;;;;;6.07;3.20;;;25.80;48.10;;;;;;5054494;28;20445;-69
2023/07/22 12:31:19;;;;;;;4.27;2.83;;;25.80;48.10;;;;;;5054629;28;20839;-68
2023/07/22 12:33:45;;;;;;;4.23;2.73;;;25.80;48.00;;;;;;5054472;28;20706;-68
2023/07/22 12:36:10;;;;;;;3.50;3.20;;;25.80;48.10;;;;;;5055044;28;20633;-68
2023/07/22 12:38:36;;;;;;;3.40;3.10;;;25.80;48.10;;;;;;5054754;28;20436;-69
2023/07/22 12:41:02;;;;;;;4.87;3.40;;;25.80;48.10;;;;;;5055109;28;20198;-69
2023/07/22 12:43:28;;;;;;;4.13;3.30;;;25.80;48.20;;;;;;5054722;28;20178;-69
2023/07/22 12:45:53;;;;;;;3.43;3.13;;;25.80;48.20;;;;;;5054743;28;20605;-69
2023/07/22 12:48:19;;;;;;;4.97;3.20;;;25.80;48.20;;;;;;5054227;28;20207;-68